Terminal Aerodrome Forecast
Issued by NWS Charleston, WV

Home | Current Version | Previous Version | Text Only | Print | Product List | Glossary On
Versions: 1 2 3 4 5 6 7 8 9 10 11 12 13 14 15 16 17 18 19 20 21 22 23 24
773
FTUS41 KRLX 191721
TAFBKW
TAF
KBKW 191721Z 1918/2018 30007KT P6SM OVC008
     FM191900 30007KT P6SM OVC012
     FM192300 VRB03KT P6SM BKN015
     FM200300 00000KT P6SM BKN008
     FM200600 00000KT P6SM BKN005
     FM201400 VRB03KT P6SM SCT008
     FM201600 00000KT P6SM SCT250=

USA.gov is the U.S. government's official web portal to all federal, state and local government web resources and services.